Airwork B733 at Honiara on Jan 26th 2014, gear collapse on landing

Last Update: February 17, 2014 / 15:29:29 GMT/Zulu time

Bookmark this article
Incident Facts

Date of incident
Jan 26, 2014

Classification
Accident

Airline
Airwork

Aircraft Registration
ZK-TLC

Aircraft Type
Boeing 737-300

ICAO Type Designator
B733

Airport ICAO Code
AGGH

An Airwork Boeing 737-300 on behalf of and in Toll Group Livery, registration ZK-TLC performing freight flight PAQ-523 from Brisbane,QL (Australia) to Honiara (Solomon Islands) with 3 crew, landed on Honiara's runway 24 at about 11:30L (00:30Z) when following a safe touchdown the right main gear collapsed during the roll out. The aircraft came to a stop on the runway resting on nose gear, left main gear and right hand engine, then settled on its tail, left main gear and right engine. There were no injuries, the aircraft sustained substantial damage to right main gear and right hand engine.

Airwork confirmed their Boeing 737-300 operated for Toll Group suffered the collapse of the right hand landing gear during roll out in Honiara. The three crew remained uninjured. An investigation has been opened.

Metars:
AGGH 260200Z 29008KT 9999 FEW014 BKN030 OVC300 29/27 Q1003
AGGH 260100Z 29010KT 8000M -SH SCT019 OVC040 27/26 Q1004
AGGH 260045Z 29014KT 2000M SH SCT019 OVC030 26/26 Q1004
AGGH 260000Z 27008KT 9999 FEW019 BKN030 OVC300 30/25 Q1004
AGGH 252300Z 32008KT 9999 SCT018 OVC040 28/26 Q1004
AGGH 252200Z 32008KT 9999 FEW017 BKN300 29/26 Q1004
AGGH 252100Z 27006KT 9999 SCT016 OVC030 27/26 Q1004
AGGH 252000Z 27005KT 9999 SCT014 BKN027 26/25 Q1003
Incident Facts

Date of incident
Jan 26, 2014

Classification
Accident

Airline
Airwork

Aircraft Registration
ZK-TLC

Aircraft Type
Boeing 737-300

ICAO Type Designator
B733

Airport ICAO Code
AGGH

This article is published under license from Avherald.com. © of text by Avherald.com.
Article source

You can read 4 more free articles without a subscription.

Subscribe now and continue reading without any limits!

Are you a subscriber?
Login
Subscribe

Read unlimited articles and receive our daily update briefing. Gain better insights into what is happening in commercial aviation safety.

Free newsletter

Want to know more and stay ahead? Get our free weekly newsletter and join 4941 existing subscribers.

By subscribing, you accept our terms and conditions and confirm that you've read our privacy policy.

Send tip

Support AeroInside by sending a small tip amount.

Related articles

Newest articles

Subscribe today

Are you researching aviation incidents? Get access to AeroInside Insights, unlimited read access and receive the daily newsletter.

Pick your plan and subscribe

Partner

Blockaviation logo

A new way to document and demonstrate airworthiness compliance and aircraft value. Find out more.

Virtual Speech logo

ELITE Simulation Solutions is a leading global provider of Flight Simulation Training Devices, IFR training software as well as flight controls and related services. Find out more.

Get updates

Never miss an article from AeroInside. Subscribe to our free weekly newsletter and join 4941 existing subscribers.

By subscribing, you accept our terms and conditions and that you've read our privacy policy.

AeroInside Blog
Popular aircraft
Airbus A320
Boeing 737-800
Boeing 737-800 MAX
Popular airlines
American Airlines
United
Delta
Air Canada
Lufthansa
British Airways